Weather at Chişinău International Airport

Public forecast

Using degrees Celsius for public forecast. Weather courtesy of forecast.io.

Current aviation weather report (METAR) for Chişinău International Airport

2024/05/21 07:30 (retrieved 21 minutes ago)

LUKK 210730Z 20011KT 170V230 CAVOK 23/09 Q1019 NOSIG

Aviation forecast (TAF) for Chişinău International Airport

2024/05/21 06:36 (retrieved 1 hour ago)

TAF TAF LUKK 210519Z 2106/2206 VRB05KT CAVOK BECMG 2107/2109 17012KT BECMG 2117/2119 14006KT